sensor_id;sensor_type;location;lat;lon;timestamp;P1;durP1;ratioP1;P2;durP2;ratioP2
5616;SDS011;2830;50.656;7.568;2022-08-02T00:00:50;13.30;;;4.13;;
5616;SDS011;2830;50.656;7.568;2022-08-02T00:03:21;14.30;;;4.70;;
5616;SDS011;2830;50.656;7.568;2022-08-02T00:05:50;13.80;;;3.93;;
5616;SDS011;2830;50.656;7.568;2022-08-02T00:08:18;12.60;;;3.70;;
5616;SDS011;2830;50.656;7.568;2022-08-02T00:10:45;13.37;;;4.40;;
5616;SDS011;2830;50.656;7.568;2022-08-02T00:13:12;13.40;;;4.70;;
5616;SDS011;2830;50.656;7.568;2022-08-02T00:15:38;13.00;;;4.23;;
5616;SDS011;2830;50.656;7.568;2022-08-02T00:18:05;13.30;;;4.83;;
5616;SDS011;2830;50.656;7.568;2022-08-02T00:20:32;13.43;;;4.57;;
5616;SDS011;2830;50.656;7.568;2022-08-02T00:22:58;14.17;;;4.43;;
5616;SDS011;2830;50.656;7.568;2022-08-02T00:25:25;16.97;;;4.50;;
5616;SDS011;2830;50.656;7.568;2022-08-02T00:27:52;18.40;;;4.50;;
5616;SDS011;2830;50.656;7.568;2022-08-02T00:30:19;13.07;;;4.40;;
5616;SDS011;2830;50.656;7.568;2022-08-02T00:32:45;18.47;;;4.93;;
5616;SDS011;2830;50.656;7.568;2022-08-02T00:35:12;16.00;;;4.80;;
5616;SDS011;2830;50.656;7.568;2022-08-02T00:37:40;16.30;;;4.10;;
5616;SDS011;2830;50.656;7.568;2022-08-02T00:40:07;13.50;;;4.60;;
5616;SDS011;2830;50.656;7.568;2022-08-02T00:42:35;12.80;;;4.43;;
5616;SDS011;2830;50.656;7.568;2022-08-02T00:45:02;14.33;;;4.13;;
5616;SDS011;2830;50.656;7.568;2022-08-02T00:47:29;13.60;;;4.50;;
5616;SDS011;2830;50.656;7.568;2022-08-02T00:49:56;13.50;;;4.40;;
5616;SDS011;2830;50.656;7.568;2022-08-02T00:52:22;15.13;;;5.10;;
5616;SDS011;2830;50.656;7.568;2022-08-02T00:54:50;14.70;;;5.20;;
5616;SDS011;2830;50.656;7.568;2022-08-02T00:57:16;13.20;;;4.43;;
5616;SDS011;2830;50.656;7.568;2022-08-02T00:59:43;12.67;;;4.20;;
5616;SDS011;2830;50.656;7.568;2022-08-02T01:02:10;13.77;;;4.27;;
5616;SDS011;2830;50.656;7.568;2022-08-02T01:04:37;15.03;;;4.23;;
5616;SDS011;2830;50.656;7.568;2022-08-02T01:07:04;11.80;;;3.73;;
5616;SDS011;2830;50.656;7.568;2022-08-02T01:09:39;13.37;;;4.63;;
5616;SDS011;2830;50.656;7.568;2022-08-02T01:12:09;12.33;;;4.10;;
5616;SDS011;2830;50.656;7.568;2022-08-02T01:14:37;12.47;;;4.17;;
5616;SDS011;2830;50.656;7.568;2022-08-02T01:20:11;13.07;;;3.93;;
5616;SDS011;2830;50.656;7.568;2022-08-02T01:23:13;12.87;;;4.23;;
5616;SDS011;2830;50.656;7.568;2022-08-02T01:26:02;12.97;;;4.27;;
5616;SDS011;2830;50.656;7.568;2022-08-02T01:28:42;12.43;;;4.13;;
5616;SDS011;2830;50.656;7.568;2022-08-02T01:31:29;13.27;;;4.20;;
5616;SDS011;2830;50.656;7.568;2022-08-02T01:37:01;17.20;;;5.27;;
5616;SDS011;2830;50.656;7.568;2022-08-02T01:39:34;13.00;;;4.47;;
5616;SDS011;2830;50.656;7.568;2022-08-02T01:42:03;17.33;;;4.00;;
5616;SDS011;2830;50.656;7.568;2022-08-02T01:44:32;14.90;;;4.20;;
5616;SDS011;2830;50.656;7.568;2022-08-02T01:47:02;13.23;;;4.43;;
5616;SDS011;2830;50.656;7.568;2022-08-02T01:49:34;12.50;;;4.17;;
5616;SDS011;2830;50.656;7.568;2022-08-02T01:52:04;15.50;;;4.37;;
5616;SDS011;2830;50.656;7.568;2022-08-02T01:57:57;12.73;;;4.20;;
5616;SDS011;2830;50.656;7.568;2022-08-02T02:00:27;13.07;;;4.13;;
5616;SDS011;2830;50.656;7.568;2022-08-02T02:02:58;13.70;;;4.30;;
5616;SDS011;2830;50.656;7.568;2022-08-02T02:05:28;14.00;;;4.30;;
5616;SDS011;2830;50.656;7.568;2022-08-02T02:07:59;13.30;;;4.53;;
5616;SDS011;2830;50.656;7.568;2022-08-02T02:10:32;13.43;;;4.50;;
5616;SDS011;2830;50.656;7.568;2022-08-02T02:13:04;14.87;;;4.70;;
5616;SDS011;2830;50.656;7.568;2022-08-02T02:15:34;12.80;;;4.50;;
5616;SDS011;2830;50.656;7.568;2022-08-02T02:18:06;13.00;;;4.30;;
5616;SDS011;2830;50.656;7.568;2022-08-02T02:20:39;15.50;;;4.70;;
5616;SDS011;2830;50.656;7.568;2022-08-02T02:23:07;15.83;;;4.70;;
5616;SDS011;2830;50.656;7.568;2022-08-02T02:25:34;21.30;;;4.50;;
5616;SDS011;2830;50.656;7.568;2022-08-02T02:28:10;15.37;;;4.50;;
5616;SDS011;2830;50.656;7.568;2022-08-02T02:30:59;13.87;;;5.17;;
5616;SDS011;2830;50.656;7.568;2022-08-02T02:33:29;13.50;;;4.93;;
5616;SDS011;2830;50.656;7.568;2022-08-02T02:35:58;12.00;;;3.97;;
5616;SDS011;2830;50.656;7.568;2022-08-02T02:38:26;16.13;;;4.30;;
5616;SDS011;2830;50.656;7.568;2022-08-02T02:40:57;12.10;;;4.03;;
5616;SDS011;2830;50.656;7.568;2022-08-02T02:43:29;13.10;;;4.60;;
5616;SDS011;2830;50.656;7.568;2022-08-02T02:45:58;12.90;;;4.40;;
5616;SDS011;2830;50.656;7.568;2022-08-02T02:48:28;13.60;;;4.63;;
5616;SDS011;2830;50.656;7.568;2022-08-02T02:50:57;13.77;;;3.83;;
5616;SDS011;2830;50.656;7.568;2022-08-02T02:53:25;13.40;;;4.30;;
5616;SDS011;2830;50.656;7.568;2022-08-02T02:56:13;15.87;;;4.70;;
5616;SDS011;2830;50.656;7.568;2022-08-02T02:58:42;12.20;;;4.40;;
5616;SDS011;2830;50.656;7.568;2022-08-02T03:01:12;12.63;;;4.30;;
5616;SDS011;2830;50.656;7.568;2022-08-02T03:04:15;12.37;;;4.87;;
5616;SDS011;2830;50.656;7.568;2022-08-02T03:06:42;11.83;;;3.87;;
5616;SDS011;2830;50.656;7.568;2022-08-02T03:09:09;12.17;;;4.20;;
5616;SDS011;2830;50.656;7.568;2022-08-02T03:11:37;14.70;;;4.80;;
5616;SDS011;2830;50.656;7.568;2022-08-02T03:14:07;14.00;;;5.00;;
5616;SDS011;2830;50.656;7.568;2022-08-02T03:16:40;14.60;;;4.40;;
5616;SDS011;2830;50.656;7.568;2022-08-02T03:19:11;13.00;;;4.13;;
5616;SDS011;2830;50.656;7.568;2022-08-02T03:21:40;12.43;;;4.33;;
5616;SDS011;2830;50.656;7.568;2022-08-02T03:24:07;13.67;;;4.80;;
5616;SDS011;2830;50.656;7.568;2022-08-02T03:26:34;16.10;;;4.77;;
5616;SDS011;2830;50.656;7.568;2022-08-02T03:29:01;13.60;;;4.70;;
5616;SDS011;2830;50.656;7.568;2022-08-02T03:31:36;12.60;;;4.17;;
5616;SDS011;2830;50.656;7.568;2022-08-02T03:34:06;12.67;;;4.50;;
5616;SDS011;2830;50.656;7.568;2022-08-02T03:36:34;12.40;;;4.33;;
5616;SDS011;2830;50.656;7.568;2022-08-02T03:39:02;16.20;;;4.47;;
5616;SDS011;2830;50.656;7.568;2022-08-02T03:41:29;17.20;;;4.97;;
5616;SDS011;2830;50.656;7.568;2022-08-02T03:43:57;12.63;;;4.20;;
5616;SDS011;2830;50.656;7.568;2022-08-02T03:46:25;14.20;;;4.40;;
5616;SDS011;2830;50.656;7.568;2022-08-02T03:48:52;12.13;;;4.40;;
5616;SDS011;2830;50.656;7.568;2022-08-02T03:51:20;17.13;;;4.50;;
5616;SDS011;2830;50.656;7.568;2022-08-02T03:53:48;12.50;;;4.07;;
5616;SDS011;2830;50.656;7.568;2022-08-02T03:56:15;18.40;;;4.73;;
5616;SDS011;2830;50.656;7.568;2022-08-02T03:58:42;12.47;;;3.90;;
5616;SDS011;2830;50.656;7.568;2022-08-02T04:01:14;11.93;;;4.03;;
5616;SDS011;2830;50.656;7.568;2022-08-02T04:03:41;12.30;;;3.93;;
5616;SDS011;2830;50.656;7.568;2022-08-02T04:06:08;13.10;;;5.30;;
5616;SDS011;2830;50.656;7.568;2022-08-02T04:08:35;12.70;;;4.20;;
5616;SDS011;2830;50.656;7.568;2022-08-02T04:11:04;12.43;;;4.20;;
5616;SDS011;2830;50.656;7.568;2022-08-02T04:13:50;13.70;;;4.50;;
5616;SDS011;2830;50.656;7.568;2022-08-02T04:16:23;17.27;;;4.43;;
5616;SDS011;2830;50.656;7.568;2022-08-02T04:19:00;12.10;;;4.43;;
5616;SDS011;2830;50.656;7.568;2022-08-02T04:21:33;15.60;;;4.70;;
5616;SDS011;2830;50.656;7.568;2022-08-02T04:24:17;12.33;;;4.80;;
5616;SDS011;2830;50.656;7.568;2022-08-02T04:26:50;17.00;;;4.80;;
5616;SDS011;2830;50.656;7.568;2022-08-02T04:29:32;12.50;;;3.67;;
5616;SDS011;2830;50.656;7.568;2022-08-02T04:32:00;12.80;;;4.60;;
5616;SDS011;2830;50.656;7.568;2022-08-02T04:34:29;12.90;;;4.50;;
5616;SDS011;2830;50.656;7.568;2022-08-02T04:36:57;11.67;;;3.80;;
5616;SDS011;2830;50.656;7.568;2022-08-02T04:39:25;12.20;;;4.30;;
5616;SDS011;2830;50.656;7.568;2022-08-02T04:41:52;12.50;;;4.57;;
5616;SDS011;2830;50.656;7.568;2022-08-02T04:44:22;11.40;;;3.70;;
5616;SDS011;2830;50.656;7.568;2022-08-02T04:46:49;13.27;;;4.20;;
5616;SDS011;2830;50.656;7.568;2022-08-02T04:49:17;15.87;;;4.80;;
5616;SDS011;2830;50.656;7.568;2022-08-02T04:51:43;13.70;;;4.60;;
5616;SDS011;2830;50.656;7.568;2022-08-02T04:54:10;14.50;;;4.93;;
5616;SDS011;2830;50.656;7.568;2022-08-02T04:56:37;13.80;;;4.33;;
5616;SDS011;2830;50.656;7.568;2022-08-02T04:59:05;12.60;;;4.40;;
5616;SDS011;2830;50.656;7.568;2022-08-02T05:01:32;13.53;;;5.20;;
5616;SDS011;2830;50.656;7.568;2022-08-02T05:04:00;13.07;;;5.17;;
5616;SDS011;2830;50.656;7.568;2022-08-02T05:06:27;14.40;;;4.63;;
5616;SDS011;2830;50.656;7.568;2022-08-02T05:08:54;12.40;;;5.10;;
5616;SDS011;2830;50.656;7.568;2022-08-02T05:11:21;14.10;;;4.80;;
5616;SDS011;2830;50.656;7.568;2022-08-02T05:14:01;12.73;;;4.73;;
5616;SDS011;2830;50.656;7.568;2022-08-02T05:16:29;13.23;;;4.33;;
5616;SDS011;2830;50.656;7.568;2022-08-02T05:18:58;13.13;;;4.70;;
5616;SDS011;2830;50.656;7.568;2022-08-02T05:21:26;13.20;;;4.60;;
5616;SDS011;2830;50.656;7.568;2022-08-02T05:23:53;16.27;;;5.87;;
5616;SDS011;2830;50.656;7.568;2022-08-02T05:26:19;23.37;;;5.70;;
5616;SDS011;2830;50.656;7.568;2022-08-02T05:28:46;14.63;;;5.70;;
5616;SDS011;2830;50.656;7.568;2022-08-02T05:31:13;12.40;;;4.50;;
5616;SDS011;2830;50.656;7.568;2022-08-02T05:33:40;12.40;;;4.60;;
5616;SDS011;2830;50.656;7.568;2022-08-02T05:36:07;14.53;;;4.60;;
5616;SDS011;2830;50.656;7.568;2022-08-02T05:38:34;11.40;;;4.07;;
5616;SDS011;2830;50.656;7.568;2022-08-02T05:41:03;12.63;;;4.30;;
5616;SDS011;2830;50.656;7.568;2022-08-02T05:43:30;14.07;;;4.00;;
5616;SDS011;2830;50.656;7.568;2022-08-02T05:45:57;13.07;;;4.53;;
5616;SDS011;2830;50.656;7.568;2022-08-02T05:48:24;13.63;;;4.47;;
5616;SDS011;2830;50.656;7.568;2022-08-02T05:51:12;11.53;;;3.63;;
5616;SDS011;2830;50.656;7.568;2022-08-02T05:56:49;14.37;;;5.00;;
5616;SDS011;2830;50.656;7.568;2022-08-02T05:59:44;15.50;;;4.87;;
5616;SDS011;2830;50.656;7.568;2022-08-02T06:02:30;11.80;;;4.13;;
5616;SDS011;2830;50.656;7.568;2022-08-02T06:07:46;11.80;;;3.53;;
5616;SDS011;2830;50.656;7.568;2022-08-02T06:10:15;13.10;;;4.30;;
5616;SDS011;2830;50.656;7.568;2022-08-02T06:12:50;13.93;;;3.40;;
5616;SDS011;2830;50.656;7.568;2022-08-02T06:15:21;15.63;;;4.47;;
5616;SDS011;2830;50.656;7.568;2022-08-02T06:17:48;12.67;;;3.33;;
5616;SDS011;2830;50.656;7.568;2022-08-02T06:20:15;13.70;;;4.90;;
5616;SDS011;2830;50.656;7.568;2022-08-02T06:22:43;13.67;;;5.00;;
5616;SDS011;2830;50.656;7.568;2022-08-02T06:25:12;13.83;;;6.17;;
5616;SDS011;2830;50.656;7.568;2022-08-02T06:27:59;14.40;;;4.43;;
5616;SDS011;2830;50.656;7.568;2022-08-02T06:30:28;17.33;;;5.60;;
5616;SDS011;2830;50.656;7.568;2022-08-02T06:32:58;15.60;;;4.97;;
5616;SDS011;2830;50.656;7.568;2022-08-02T06:35:28;13.10;;;4.20;;
5616;SDS011;2830;50.656;7.568;2022-08-02T06:38:08;12.87;;;4.23;;
5616;SDS011;2830;50.656;7.568;2022-08-02T06:45:56;12.27;;;4.10;;
5616;SDS011;2830;50.656;7.568;2022-08-02T06:48:46;16.57;;;4.10;;
5616;SDS011;2830;50.656;7.568;2022-08-02T06:51:13;16.80;;;4.67;;
5616;SDS011;2830;50.656;7.568;2022-08-02T06:53:40;13.70;;;3.80;;
5616;SDS011;2830;50.656;7.568;2022-08-02T06:56:07;13.23;;;4.00;;
5616;SDS011;2830;50.656;7.568;2022-08-02T06:58:35;14.47;;;3.80;;
5616;SDS011;2830;50.656;7.568;2022-08-02T07:01:01;14.13;;;3.30;;
5616;SDS011;2830;50.656;7.568;2022-08-02T07:03:35;12.00;;;2.97;;
5616;SDS011;2830;50.656;7.568;2022-08-02T07:06:03;15.10;;;3.40;;
5616;SDS011;2830;50.656;7.568;2022-08-02T07:08:31;14.50;;;3.53;;
5616;SDS011;2830;50.656;7.568;2022-08-02T07:10:58;13.33;;;3.60;;
5616;SDS011;2830;50.656;7.568;2022-08-02T07:13:26;12.10;;;2.60;;
5616;SDS011;2830;50.656;7.568;2022-08-02T07:15:54;12.10;;;3.07;;
5616;SDS011;2830;50.656;7.568;2022-08-02T07:18:22;15.20;;;4.27;;
5616;SDS011;2830;50.656;7.568;2022-08-02T07:20:49;13.00;;;3.10;;
5616;SDS011;2830;50.656;7.568;2022-08-02T07:23:16;14.10;;;2.97;;
5616;SDS011;2830;50.656;7.568;2022-08-02T07:25:43;13.73;;;3.23;;
5616;SDS011;2830;50.656;7.568;2022-08-02T07:28:29;13.40;;;2.87;;
5616;SDS011;2830;50.656;7.568;2022-08-02T07:30:56;14.30;;;3.23;;
5616;SDS011;2830;50.656;7.568;2022-08-02T07:33:22;13.30;;;3.27;;
5616;SDS011;2830;50.656;7.568;2022-08-02T07:36:04;13.30;;;3.20;;
5616;SDS011;2830;50.656;7.568;2022-08-02T07:38:34;13.07;;;2.90;;
5616;SDS011;2830;50.656;7.568;2022-08-02T07:41:02;14.90;;;2.70;;
5616;SDS011;2830;50.656;7.568;2022-08-02T07:43:29;16.40;;;2.70;;
5616;SDS011;2830;50.656;7.568;2022-08-02T07:45:56;12.07;;;2.43;;
5616;SDS011;2830;50.656;7.568;2022-08-02T07:48:26;14.13;;;2.70;;
5616;SDS011;2830;50.656;7.568;2022-08-02T07:50:53;13.20;;;2.40;;
5616;SDS011;2830;50.656;7.568;2022-08-02T07:53:19;18.20;;;2.50;;
5616;SDS011;2830;50.656;7.568;2022-08-02T07:56:06;13.30;;;2.40;;
5616;SDS011;2830;50.656;7.568;2022-08-02T07:58:33;14.37;;;2.03;;
5616;SDS011;2830;50.656;7.568;2022-08-02T08:00:59;16.47;;;2.00;;
5616;SDS011;2830;50.656;7.568;2022-08-02T08:03:26;12.97;;;2.13;;
5616;SDS011;2830;50.656;7.568;2022-08-02T08:05:53;13.80;;;2.43;;
5616;SDS011;2830;50.656;7.568;2022-08-02T08:08:19;15.30;;;2.40;;
5616;SDS011;2830;50.656;7.568;2022-08-02T08:10:46;14.27;;;2.83;;
5616;SDS011;2830;50.656;7.568;2022-08-02T08:13:13;14.50;;;2.33;;
5616;SDS011;2830;50.656;7.568;2022-08-02T08:15:41;12.33;;;2.13;;
5616;SDS011;2830;50.656;7.568;2022-08-02T08:18:17;12.30;;;1.93;;
5616;SDS011;2830;50.656;7.568;2022-08-02T08:20:44;12.40;;;1.80;;
5616;SDS011;2830;50.656;7.568;2022-08-02T08:23:11;12.60;;;1.70;;
5616;SDS011;2830;50.656;7.568;2022-08-02T08:25:38;12.53;;;2.00;;
5616;SDS011;2830;50.656;7.568;2022-08-02T08:28:07;12.30;;;1.93;;
5616;SDS011;2830;50.656;7.568;2022-08-02T08:30:34;12.73;;;1.57;;
5616;SDS011;2830;50.656;7.568;2022-08-02T08:33:01;11.27;;;1.80;;
5616;SDS011;2830;50.656;7.568;2022-08-02T08:35:28;12.40;;;1.30;;
5616;SDS011;2830;50.656;7.568;2022-08-02T08:37:54;12.50;;;1.53;;
5616;SDS011;2830;50.656;7.568;2022-08-02T08:40:23;12.10;;;1.70;;
5616;SDS011;2830;50.656;7.568;2022-08-02T08:42:50;12.10;;;1.83;;
5616;SDS011;2830;50.656;7.568;2022-08-02T08:45:17;12.30;;;1.60;;
5616;SDS011;2830;50.656;7.568;2022-08-02T08:47:45;11.43;;;1.30;;
5616;SDS011;2830;50.656;7.568;2022-08-02T08:50:20;11.80;;;1.80;;
5616;SDS011;2830;50.656;7.568;2022-08-02T08:52:56;14.10;;;1.43;;
5616;SDS011;2830;50.656;7.568;2022-08-02T08:55:31;12.13;;;1.20;;
5616;SDS011;2830;50.656;7.568;2022-08-02T08:57:59;12.33;;;1.37;;
5616;SDS011;2830;50.656;7.568;2022-08-02T09:00:30;12.80;;;1.30;;
5616;SDS011;2830;50.656;7.568;2022-08-02T09:03:01;12.60;;;1.43;;
5616;SDS011;2830;50.656;7.568;2022-08-02T09:05:29;13.37;;;2.00;;
5616;SDS011;2830;50.656;7.568;2022-08-02T09:07:56;13.20;;;1.60;;
5616;SDS011;2830;50.656;7.568;2022-08-02T09:13:08;12.20;;;1.30;;
5616;SDS011;2830;50.656;7.568;2022-08-02T09:16:03;10.83;;;1.10;;
5616;SDS011;2830;50.656;7.568;2022-08-02T09:18:39;11.90;;;1.20;;
5616;SDS011;2830;50.656;7.568;2022-08-02T09:21:11;12.87;;;1.60;;
5616;SDS011;2830;50.656;7.568;2022-08-02T09:23:43;18.57;;;1.43;;
5616;SDS011;2830;50.656;7.568;2022-08-02T09:26:11;16.07;;;1.63;;
5616;SDS011;2830;50.656;7.568;2022-08-02T09:28:39;12.00;;;1.43;;
5616;SDS011;2830;50.656;7.568;2022-08-02T09:31:09;12.60;;;1.27;;
5616;SDS011;2830;50.656;7.568;2022-08-02T09:33:38;11.40;;;1.13;;
5616;SDS011;2830;50.656;7.568;2022-08-02T09:36:06;11.20;;;1.20;;
5616;SDS011;2830;50.656;7.568;2022-08-02T09:38:35;10.90;;;1.13;;
5616;SDS011;2830;50.656;7.568;2022-08-02T09:41:03;12.10;;;1.40;;
5616;SDS011;2830;50.656;7.568;2022-08-02T09:43:38;13.23;;;1.63;;
5616;SDS011;2830;50.656;7.568;2022-08-02T09:46:29;13.13;;;1.50;;
5616;SDS011;2830;50.656;7.568;2022-08-02T09:49:05;13.60;;;1.53;;
5616;SDS011;2830;50.656;7.568;2022-08-02T09:54:22;11.80;;;1.30;;
5616;SDS011;2830;50.656;7.568;2022-08-02T09:56:51;13.80;;;1.63;;
5616;SDS011;2830;50.656;7.568;2022-08-02T09:59:20;11.03;;;1.20;;
5616;SDS011;2830;50.656;7.568;2022-08-02T10:01:50;12.63;;;1.20;;
5616;SDS011;2830;50.656;7.568;2022-08-02T10:04:30;11.97;;;1.23;;
5616;SDS011;2830;50.656;7.568;2022-08-02T10:07:17;11.90;;;1.40;;
5616;SDS011;2830;50.656;7.568;2022-08-02T10:09:46;12.20;;;1.30;;
5616;SDS011;2830;50.656;7.568;2022-08-02T10:12:14;14.93;;;1.50;;
5616;SDS011;2830;50.656;7.568;2022-08-02T10:14:41;12.53;;;1.80;;
5616;SDS011;2830;50.656;7.568;2022-08-02T10:17:09;12.90;;;1.50;;
5616;SDS011;2830;50.656;7.568;2022-08-02T10:19:36;11.47;;;1.20;;
5616;SDS011;2830;50.656;7.568;2022-08-02T10:22:22;14.93;;;1.63;;
5616;SDS011;2830;50.656;7.568;2022-08-02T10:24:50;12.57;;;1.53;;
5616;SDS011;2830;50.656;7.568;2022-08-02T10:27:20;11.60;;;1.50;;
5616;SDS011;2830;50.656;7.568;2022-08-02T10:29:50;13.03;;;1.13;;
5616;SDS011;2830;50.656;7.568;2022-08-02T10:35:03;13.00;;;1.33;;
5616;SDS011;2830;50.656;7.568;2022-08-02T10:37:51;14.13;;;1.70;;
5616;SDS011;2830;50.656;7.568;2022-08-02T10:40:21;12.80;;;1.43;;
5616;SDS011;2830;50.656;7.568;2022-08-02T10:42:54;13.03;;;1.20;;
5616;SDS011;2830;50.656;7.568;2022-08-02T10:45:26;11.50;;;1.20;;
5616;SDS011;2830;50.656;7.568;2022-08-02T10:48:07;12.10;;;1.20;;
5616;SDS011;2830;50.656;7.568;2022-08-02T10:55:58;11.63;;;1.27;;
5616;SDS011;2830;50.656;7.568;2022-08-02T10:58:30;11.30;;;1.13;;
5616;SDS011;2830;50.656;7.568;2022-08-02T11:01:05;11.43;;;1.33;;
5616;SDS011;2830;50.656;7.568;2022-08-02T11:04:05;14.17;;;1.73;;
5616;SDS011;2830;50.656;7.568;2022-08-02T11:06:35;12.63;;;1.70;;
5616;SDS011;2830;50.656;7.568;2022-08-02T11:09:46;12.70;;;1.50;;
5616;SDS011;2830;50.656;7.568;2022-08-02T11:12:15;14.07;;;1.50;;
5616;SDS011;2830;50.656;7.568;2022-08-02T11:14:56;12.00;;;1.20;;
5616;SDS011;2830;50.656;7.568;2022-08-02T11:17:25;13.10;;;2.00;;
5616;SDS011;2830;50.656;7.568;2022-08-02T11:22:36;15.97;;;2.00;;
5616;SDS011;2830;50.656;7.568;2022-08-02T11:27:49;12.30;;;1.70;;
5616;SDS011;2830;50.656;7.568;2022-08-02T11:30:18;13.00;;;1.60;;
5616;SDS011;2830;50.656;7.568;2022-08-02T11:32:56;12.10;;;1.30;;
5616;SDS011;2830;50.656;7.568;2022-08-02T11:35:37;12.10;;;1.60;;
5616;SDS011;2830;50.656;7.568;2022-08-02T11:38:18;15.30;;;2.10;;
5616;SDS011;2830;50.656;7.568;2022-08-02T11:40:46;13.93;;;1.40;;
5616;SDS011;2830;50.656;7.568;2022-08-02T11:43:20;14.83;;;1.67;;
5616;SDS011;2830;50.656;7.568;2022-08-02T11:45:49;13.10;;;1.57;;
5616;SDS011;2830;50.656;7.568;2022-08-02T11:48:30;15.20;;;1.77;;
5616;SDS011;2830;50.656;7.568;2022-08-02T11:51:02;12.57;;;2.10;;
5616;SDS011;2830;50.656;7.568;2022-08-02T11:53:39;13.70;;;1.63;;
5616;SDS011;2830;50.656;7.568;2022-08-02T11:56:09;16.70;;;1.83;;
5616;SDS011;2830;50.656;7.568;2022-08-02T11:58:36;17.97;;;2.40;;
5616;SDS011;2830;50.656;7.568;2022-08-02T12:01:07;15.60;;;1.87;;
5616;SDS011;2830;50.656;7.568;2022-08-02T12:03:34;15.50;;;1.80;;
5616;SDS011;2830;50.656;7.568;2022-08-02T12:06:03;14.97;;;1.90;;
5616;SDS011;2830;50.656;7.568;2022-08-02T12:08:41;21.23;;;1.67;;
5616;SDS011;2830;50.656;7.568;2022-08-02T12:11:19;12.00;;;1.70;;
5616;SDS011;2830;50.656;7.568;2022-08-02T12:13:47;12.70;;;1.50;;
5616;SDS011;2830;50.656;7.568;2022-08-02T12:16:22;12.30;;;1.40;;
5616;SDS011;2830;50.656;7.568;2022-08-02T12:19:08;12.77;;;1.77;;
5616;SDS011;2830;50.656;7.568;2022-08-02T12:21:44;12.57;;;1.50;;
5616;SDS011;2830;50.656;7.568;2022-08-02T12:24:12;13.00;;;1.77;;
5616;SDS011;2830;50.656;7.568;2022-08-02T12:26:42;15.10;;;1.60;;
5616;SDS011;2830;50.656;7.568;2022-08-02T12:29:10;11.80;;;1.50;;
5616;SDS011;2830;50.656;7.568;2022-08-02T12:31:44;11.67;;;1.50;;
5616;SDS011;2830;50.656;7.568;2022-08-02T12:34:23;12.83;;;1.30;;
5616;SDS011;2830;50.656;7.568;2022-08-02T12:39:40;11.87;;;1.40;;
5616;SDS011;2830;50.656;7.568;2022-08-02T12:42:12;45.10;;;6.00;;
5616;SDS011;2830;50.656;7.568;2022-08-02T12:44:54;14.67;;;1.93;;
5616;SDS011;2830;50.656;7.568;2022-08-02T12:47:24;14.80;;;1.40;;
5616;SDS011;2830;50.656;7.568;2022-08-02T12:50:11;15.07;;;1.80;;
5616;SDS011;2830;50.656;7.568;2022-08-02T12:52:38;14.00;;;1.80;;
5616;SDS011;2830;50.656;7.568;2022-08-02T12:55:18;13.07;;;1.67;;
5616;SDS011;2830;50.656;7.568;2022-08-02T12:58:10;15.70;;;1.60;;
5616;SDS011;2830;50.656;7.568;2022-08-02T13:00:37;14.03;;;1.60;;
5616;SDS011;2830;50.656;7.568;2022-08-02T13:03:05;13.20;;;1.87;;
5616;SDS011;2830;50.656;7.568;2022-08-02T13:05:52;17.70;;;1.70;;
5616;SDS011;2830;50.656;7.568;2022-08-02T13:08:25;11.97;;;1.43;;
5616;SDS011;2830;50.656;7.568;2022-08-02T13:10:53;13.10;;;1.60;;
5616;SDS011;2830;50.656;7.568;2022-08-02T13:13:19;13.60;;;1.60;;
5616;SDS011;2830;50.656;7.568;2022-08-02T13:15:47;12.53;;;1.60;;
5616;SDS011;2830;50.656;7.568;2022-08-02T13:18:16;12.73;;;1.80;;
5616;SDS011;2830;50.656;7.568;2022-08-02T13:20:43;12.60;;;1.53;;
5616;SDS011;2830;50.656;7.568;2022-08-02T13:23:11;13.87;;;1.73;;
5616;SDS011;2830;50.656;7.568;2022-08-02T13:25:47;14.30;;;1.60;;
5616;SDS011;2830;50.656;7.568;2022-08-02T13:28:18;12.00;;;1.23;;
5616;SDS011;2830;50.656;7.568;2022-08-02T13:30:45;14.70;;;1.97;;
5616;SDS011;2830;50.656;7.568;2022-08-02T13:33:12;13.37;;;1.60;;
5616;SDS011;2830;50.656;7.568;2022-08-02T13:35:40;12.00;;;1.40;;
5616;SDS011;2830;50.656;7.568;2022-08-02T13:38:07;13.13;;;1.87;;
5616;SDS011;2830;50.656;7.568;2022-08-02T13:40:34;12.63;;;1.47;;
5616;SDS011;2830;50.656;7.568;2022-08-02T13:43:30;14.43;;;1.80;;
5616;SDS011;2830;50.656;7.568;2022-08-02T13:46:16;22.13;;;1.80;;
5616;SDS011;2830;50.656;7.568;2022-08-02T13:48:54;12.23;;;1.40;;
5616;SDS011;2830;50.656;7.568;2022-08-02T13:51:21;14.47;;;2.10;;
5616;SDS011;2830;50.656;7.568;2022-08-02T13:53:48;12.70;;;2.03;;
5616;SDS011;2830;50.656;7.568;2022-08-02T13:56:15;13.53;;;1.60;;
5616;SDS011;2830;50.656;7.568;2022-08-02T13:58:41;13.30;;;2.40;;
5616;SDS011;2830;50.656;7.568;2022-08-02T14:01:08;15.13;;;1.97;;
5616;SDS011;2830;50.656;7.568;2022-08-02T14:03:35;12.60;;;1.77;;
5616;SDS011;2830;50.656;7.568;2022-08-02T14:06:21;15.30;;;2.20;;
5616;SDS011;2830;50.656;7.568;2022-08-02T14:08:48;13.20;;;1.70;;
5616;SDS011;2830;50.656;7.568;2022-08-02T14:11:15;12.23;;;1.63;;
5616;SDS011;2830;50.656;7.568;2022-08-02T14:13:42;12.60;;;1.30;;
5616;SDS011;2830;50.656;7.568;2022-08-02T14:16:08;13.03;;;1.67;;
5616;SDS011;2830;50.656;7.568;2022-08-02T14:18:36;12.10;;;1.67;;
5616;SDS011;2830;50.656;7.568;2022-08-02T14:21:03;12.10;;;1.77;;
5616;SDS011;2830;50.656;7.568;2022-08-02T14:23:29;11.93;;;1.53;;
5616;SDS011;2830;50.656;7.568;2022-08-02T14:26:16;12.67;;;2.13;;
5616;SDS011;2830;50.656;7.568;2022-08-02T14:28:53;12.00;;;1.43;;
5616;SDS011;2830;50.656;7.568;2022-08-02T14:31:20;12.30;;;1.67;;
5616;SDS011;2830;50.656;7.568;2022-08-02T14:33:46;13.50;;;1.80;;
5616;SDS011;2830;50.656;7.568;2022-08-02T14:36:13;12.37;;;1.70;;
5616;SDS011;2830;50.656;7.568;2022-08-02T14:38:52;12.87;;;2.13;;
5616;SDS011;2830;50.656;7.568;2022-08-02T14:41:19;12.00;;;1.60;;
5616;SDS011;2830;50.656;7.568;2022-08-02T14:43:45;12.50;;;1.73;;
5616;SDS011;2830;50.656;7.568;2022-08-02T14:46:31;12.50;;;1.60;;
5616;SDS011;2830;50.656;7.568;2022-08-02T14:49:03;12.37;;;1.87;;
5616;SDS011;2830;50.656;7.568;2022-08-02T14:51:33;12.30;;;1.47;;
5616;SDS011;2830;50.656;7.568;2022-08-02T14:54:02;13.10;;;1.90;;
5616;SDS011;2830;50.656;7.568;2022-08-02T14:56:33;12.50;;;2.00;;
5616;SDS011;2830;50.656;7.568;2022-08-02T14:59:00;12.37;;;1.90;;
5616;SDS011;2830;50.656;7.568;2022-08-02T15:01:27;14.80;;;1.60;;
5616;SDS011;2830;50.656;7.568;2022-08-02T15:03:54;14.40;;;1.70;;
5616;SDS011;2830;50.656;7.568;2022-08-02T15:06:20;12.37;;;1.60;;
5616;SDS011;2830;50.656;7.568;2022-08-02T15:08:47;13.93;;;1.83;;
5616;SDS011;2830;50.656;7.568;2022-08-02T15:11:14;13.63;;;1.90;;
5616;SDS011;2830;50.656;7.568;2022-08-02T15:13:41;12.83;;;2.17;;
5616;SDS011;2830;50.656;7.568;2022-08-02T15:16:08;12.27;;;1.70;;
5616;SDS011;2830;50.656;7.568;2022-08-02T15:18:35;12.60;;;2.00;;
5616;SDS011;2830;50.656;7.568;2022-08-02T15:21:01;13.87;;;2.00;;
5616;SDS011;2830;50.656;7.568;2022-08-02T15:23:48;13.70;;;1.90;;
5616;SDS011;2830;50.656;7.568;2022-08-02T15:26:15;16.80;;;1.57;;
5616;SDS011;2830;50.656;7.568;2022-08-02T15:28:43;17.33;;;4.70;;
5616;SDS011;2830;50.656;7.568;2022-08-02T15:31:09;14.07;;;3.30;;
5616;SDS011;2830;50.656;7.568;2022-08-02T15:33:47;13.60;;;2.20;;
5616;SDS011;2830;50.656;7.568;2022-08-02T15:36:15;13.77;;;2.07;;
5616;SDS011;2830;50.656;7.568;2022-08-02T15:38:42;13.00;;;2.53;;
5616;SDS011;2830;50.656;7.568;2022-08-02T15:41:08;12.93;;;2.07;;
5616;SDS011;2830;50.656;7.568;2022-08-02T15:43:37;14.60;;;3.13;;
5616;SDS011;2830;50.656;7.568;2022-08-02T15:46:24;11.67;;;1.70;;
5616;SDS011;2830;50.656;7.568;2022-08-02T15:48:56;13.30;;;2.00;;
5616;SDS011;2830;50.656;7.568;2022-08-02T15:51:24;12.43;;;1.77;;
5616;SDS011;2830;50.656;7.568;2022-08-02T15:53:51;13.90;;;2.20;;
5616;SDS011;2830;50.656;7.568;2022-08-02T15:56:18;12.20;;;1.90;;
5616;SDS011;2830;50.656;7.568;2022-08-02T15:58:49;13.43;;;1.70;;
5616;SDS011;2830;50.656;7.568;2022-08-02T16:01:22;12.23;;;2.00;;
5616;SDS011;2830;50.656;7.568;2022-08-02T16:03:49;16.77;;;2.37;;
5616;SDS011;2830;50.656;7.568;2022-08-02T16:06:16;14.63;;;2.50;;